sensor_id;sensor_type;location;lat;lon;timestamp;pressure;altitude;pressure_sealevel;temperature;humidity
8049;BME280;20935;42.660;23.342;2023-06-22T00:02:01;95188.78;;;24.86;76.00
8049;BME280;20935;42.660;23.342;2023-06-22T00:04:47;95185.00;;;24.83;77.41
8049;BME280;20935;42.660;23.342;2023-06-22T00:07:32;95187.44;;;24.81;76.42
8049;BME280;20935;42.660;23.342;2023-06-22T00:10:18;95191.13;;;24.78;76.11
8049;BME280;20935;42.660;23.342;2023-06-22T00:13:04;95189.16;;;24.78;76.17
8049;BME280;20935;42.660;23.342;2023-06-22T00:15:51;95182.91;;;24.78;78.70
8049;BME280;20935;42.660;23.342;2023-06-22T00:18:36;95186.88;;;24.77;76.18
8049;BME280;20935;42.660;23.342;2023-06-22T00:21:21;95172.91;;;24.75;75.19
8049;BME280;20935;42.660;23.342;2023-06-22T00:24:07;95171.69;;;24.76;76.14
8049;BME280;20935;42.660;23.342;2023-06-22T00:26:52;95172.72;;;24.78;77.71
8049;BME280;20935;42.660;23.342;2023-06-22T00:29:38;95161.44;;;24.76;76.93
8049;BME280;20935;42.660;23.342;2023-06-22T00:32:25;95155.25;;;24.76;78.32
8049;BME280;20935;42.660;23.342;2023-06-22T00:35:11;95153.72;;;24.75;77.42
8049;BME280;20935;42.660;23.342;2023-06-22T00:37:57;95162.72;;;24.75;76.86
8049;BME280;20935;42.660;23.342;2023-06-22T00:40:44;95167.63;;;24.71;76.45
8049;BME280;20935;42.660;23.342;2023-06-22T00:43:31;95155.41;;;24.72;78.00
8049;BME280;20935;42.660;23.342;2023-06-22T00:46:17;95157.88;;;24.70;76.99
8049;BME280;20935;42.660;23.342;2023-06-22T00:49:04;95152.13;;;24.68;76.91
8049;BME280;20935;42.660;23.342;2023-06-22T00:51:50;95159.31;;;24.66;75.30
8049;BME280;20935;42.660;23.342;2023-06-22T00:54:35;95158.34;;;24.69;77.13
8049;BME280;20935;42.660;23.342;2023-06-22T00:57:22;95166.31;;;24.67;76.37
8049;BME280;20935;42.660;23.342;2023-06-22T01:00:12;95160.81;;;24.67;76.79
8049;BME280;20935;42.660;23.342;2023-06-22T01:02:59;95162.81;;;24.66;74.47
8049;BME280;20935;42.660;23.342;2023-06-22T01:05:46;95177.72;;;24.65;74.66
8049;BME280;20935;42.660;23.342;2023-06-22T01:08:39;95175.47;;;24.64;76.12
8049;BME280;20935;42.660;23.342;2023-06-22T01:11:32;95164.97;;;24.62;74.62
8049;BME280;20935;42.660;23.342;2023-06-22T01:14:23;95161.03;;;24.63;75.82
8049;BME280;20935;42.660;23.342;2023-06-22T01:17:11;95166.78;;;24.65;74.52
8049;BME280;20935;42.660;23.342;2023-06-22T01:20:00;95172.25;;;24.65;77.44
8049;BME280;20935;42.660;23.342;2023-06-22T01:23:02;95175.47;;;24.64;77.23
8049;BME280;20935;42.660;23.342;2023-06-22T01:25:56;95176.41;;;24.61;74.84
8049;BME280;20935;42.660;23.342;2023-06-22T01:28:46;95181.13;;;24.60;75.92
8049;BME280;20935;42.660;23.342;2023-06-22T01:31:32;95179.16;;;24.61;76.53
8049;BME280;20935;42.660;23.342;2023-06-22T01:34:20;95184.25;;;24.53;nan
8049;BME280;20935;42.660;23.342;2023-06-22T01:37:07;95183.78;;;24.55;74.20
8049;BME280;20935;42.660;23.342;2023-06-22T01:39:53;95173.88;;;24.57;76.12
8049;BME280;20935;42.660;23.342;2023-06-22T01:42:41;95177.84;;;24.56;75.93
8049;BME280;20935;42.660;23.342;2023-06-22T01:45:30;95188.06;;;24.56;74.52
8049;BME280;20935;42.660;23.342;2023-06-22T01:48:15;95179.84;;;24.56;75.29
8049;BME280;20935;42.660;23.342;2023-06-22T01:51:01;95185.00;;;24.54;74.65
8049;BME280;20935;42.660;23.342;2023-06-22T01:53:47;95182.75;;;24.52;74.01
8049;BME280;20935;42.660;23.342;2023-06-22T01:56:33;95195.22;;;24.53;75.49
8049;BME280;20935;42.660;23.342;2023-06-22T01:59:25;95195.41;;;24.50;74.74
8049;BME280;20935;42.660;23.342;2023-06-22T02:02:15;95199.66;;;24.51;75.73
8049;BME280;20935;42.660;23.342;2023-06-22T02:05:05;95200.63;;;24.48;74.49
8049;BME280;20935;42.660;23.342;2023-06-22T02:07:55;95195.91;;;24.48;76.67
8049;BME280;20935;42.660;23.342;2023-06-22T02:10:43;95204.56;;;24.47;73.37
8049;BME280;20935;42.660;23.342;2023-06-22T02:13:30;95205.03;;;24.45;74.59
8049;BME280;20935;42.660;23.342;2023-06-22T02:16:16;95191.06;;;24.43;73.84
8049;BME280;20935;42.660;23.342;2023-06-22T02:19:04;95187.56;;;24.43;73.17
8049;BME280;20935;42.660;23.342;2023-06-22T02:21:50;95186.53;;;24.40;73.58
8049;BME280;20935;42.660;23.342;2023-06-22T02:24:35;95188.53;;;24.40;73.38
8049;BME280;20935;42.660;23.342;2023-06-22T02:27:20;95195.03;;;24.42;75.30
8049;BME280;20935;42.660;23.342;2023-06-22T02:30:07;95190.31;;;24.43;74.83
8049;BME280;20935;42.660;23.342;2023-06-22T02:32:53;95187.84;;;24.45;73.42
8049;BME280;20935;42.660;23.342;2023-06-22T02:35:43;95187.38;;;24.46;75.82
8049;BME280;20935;42.660;23.342;2023-06-22T02:38:32;95184.66;;;24.46;74.83
8049;BME280;20935;42.660;23.342;2023-06-22T02:41:18;95185.41;;;24.47;74.02
8049;BME280;20935;42.660;23.342;2023-06-22T02:44:04;95189.38;;;24.46;75.68
8049;BME280;20935;42.660;23.342;2023-06-22T02:46:49;95194.84;;;24.46;74.67
8049;BME280;20935;42.660;23.342;2023-06-22T02:49:35;95196.34;;;24.47;73.24
8049;BME280;20935;42.660;23.342;2023-06-22T02:52:21;95201.06;;;24.46;75.68
8049;BME280;20935;42.660;23.342;2023-06-22T02:55:08;95201.84;;;24.47;75.59
8049;BME280;20935;42.660;23.342;2023-06-22T02:57:53;95188.91;;;24.47;75.61
8049;BME280;20935;42.660;23.342;2023-06-22T03:00:39;95198.06;;;24.44;75.22
8049;BME280;20935;42.660;23.342;2023-06-22T03:03:24;95195.31;;;24.44;72.72
8049;BME280;20935;42.660;23.342;2023-06-22T03:06:10;95198.06;;;24.44;75.03
8049;BME280;20935;42.660;23.342;2023-06-22T03:09:00;95194.06;;;24.45;75.63
8049;BME280;20935;42.660;23.342;2023-06-22T03:11:48;95201.84;;;24.47;75.83
8049;BME280;20935;42.660;23.342;2023-06-22T03:14:33;95201.06;;;24.46;73.25
8049;BME280;20935;42.660;23.342;2023-06-22T03:17:19;95210.50;;;24.45;74.41
8049;BME280;20935;42.660;23.342;2023-06-22T03:20:06;95213.56;;;24.47;75.01
8049;BME280;20935;42.660;23.342;2023-06-22T03:22:53;95217.50;;;24.46;74.42
8049;BME280;20935;42.660;23.342;2023-06-22T03:25:40;95224.22;;;24.45;73.21
8049;BME280;20935;42.660;23.342;2023-06-22T03:28:26;95229.69;;;24.45;74.10
8049;BME280;20935;42.660;23.342;2023-06-22T03:31:12;95223.00;;;24.46;76.77
8049;BME280;20935;42.660;23.342;2023-06-22T03:33:57;95225.72;;;24.46;74.70
8049;BME280;20935;42.660;23.342;2023-06-22T03:36:43;95227.72;;;24.46;72.96
8049;BME280;20935;42.660;23.342;2023-06-22T03:39:29;95233.69;;;24.44;73.40
8049;BME280;20935;42.660;23.342;2023-06-22T03:42:15;95236.13;;;24.42;73.68
8049;BME280;20935;42.660;23.342;2023-06-22T03:45:00;95239.88;;;24.45;74.31
8049;BME280;20935;42.660;23.342;2023-06-22T03:47:47;95242.63;;;24.45;75.74
8049;BME280;20935;42.660;23.342;2023-06-22T03:50:33;95240.94;;;24.47;75.95
8049;BME280;20935;42.660;23.342;2023-06-22T03:53:18;95240.66;;;24.45;74.21
8049;BME280;20935;42.660;23.342;2023-06-22T03:56:03;95250.38;;;24.46;75.77
8049;BME280;20935;42.660;23.342;2023-06-22T03:58:50;95245.66;;;24.47;75.91
8049;BME280;20935;42.660;23.342;2023-06-22T04:01:35;95240.66;;;24.45;75.23
8049;BME280;20935;42.660;23.342;2023-06-22T04:04:21;95251.31;;;24.43;74.35
8049;BME280;20935;42.660;23.342;2023-06-22T04:07:06;95257.56;;;24.44;75.64
8049;BME280;20935;42.660;23.342;2023-06-22T04:09:52;95259.81;;;24.45;75.93
8049;BME280;20935;42.660;23.342;2023-06-22T04:12:38;95249.63;;;24.46;74.57
8049;BME280;20935;42.660;23.342;2023-06-22T04:15:25;95244.91;;;24.46;76.09
8049;BME280;20935;42.660;23.342;2023-06-22T04:18:10;95233.94;;;24.46;74.50
8049;BME280;20935;42.660;23.342;2023-06-22T04:20:56;95236.97;;;24.48;74.76
8049;BME280;20935;42.660;23.342;2023-06-22T04:23:41;95229.97;;;24.47;75.02
8049;BME280;20935;42.660;23.342;2023-06-22T04:26:27;95229.50;;;24.49;76.24
8049;BME280;20935;42.660;23.342;2023-06-22T04:29:13;95221.28;;;24.49;77.25
8049;BME280;20935;42.660;23.342;2023-06-22T04:32:00;95221.28;;;24.49;76.50
8049;BME280;20935;42.660;23.342;2023-06-22T04:34:49;95211.09;;;24.49;78.89
8049;BME280;20935;42.660;23.342;2023-06-22T04:37:36;95214.13;;;24.51;75.36
8049;BME280;20935;42.660;23.342;2023-06-22T04:40:23;95215.34;;;24.50;74.73
8049;BME280;20935;42.660;23.342;2023-06-22T04:43:08;95223.84;;;24.52;77.69
8049;BME280;20935;42.660;23.342;2023-06-22T04:45:54;95225.84;;;24.52;77.41
8049;BME280;20935;42.660;23.342;2023-06-22T04:48:41;95225.53;;;24.50;75.54
8049;BME280;20935;42.660;23.342;2023-06-22T04:51:26;95222.53;;;24.48;76.58
8049;BME280;20935;42.660;23.342;2023-06-22T04:54:14;95233.19;;;24.46;75.80
8049;BME280;20935;42.660;23.342;2023-06-22T04:57:00;95243.38;;;24.45;76.11
8049;BME280;20935;42.660;23.342;2023-06-22T04:59:46;95243.38;;;24.45;76.85
8049;BME280;20935;42.660;23.342;2023-06-22T05:02:31;95246.13;;;24.45;76.71
8049;BME280;20935;42.660;23.342;2023-06-22T05:05:18;95242.91;;;24.47;76.27
8049;BME280;20935;42.660;23.342;2023-06-22T05:08:04;95244.91;;;24.46;76.16
8049;BME280;20935;42.660;23.342;2023-06-22T05:10:51;95238.19;;;24.47;75.53
8049;BME280;20935;42.660;23.342;2023-06-22T05:13:36;95244.72;;;24.50;76.93
8049;BME280;20935;42.660;23.342;2023-06-22T05:16:22;95243.69;;;24.47;75.14
8049;BME280;20935;42.660;23.342;2023-06-22T05:19:08;95234.25;;;24.48;75.31
8049;BME280;20935;42.660;23.342;2023-06-22T05:21:54;95238.19;;;24.47;75.57
8049;BME280;20935;42.660;23.342;2023-06-22T05:24:40;95238.47;;;24.49;76.00
8049;BME280;20935;42.660;23.342;2023-06-22T05:27:25;95250.94;;;24.50;75.81
8049;BME280;20935;42.660;23.342;2023-06-22T05:30:11;95240.00;;;24.50;74.93
8049;BME280;20935;42.660;23.342;2023-06-22T05:32:56;95244.25;;;24.51;74.72
8049;BME280;20935;42.660;23.342;2023-06-22T05:35:42;95257.00;;;24.54;74.89
8049;BME280;20935;42.660;23.342;2023-06-22T05:38:29;95262.00;;;24.56;76.08
8049;BME280;20935;42.660;23.342;2023-06-22T05:41:14;95259.75;;;24.54;74.37
8049;BME280;20935;42.660;23.342;2023-06-22T05:44:00;95265.22;;;24.54;74.67
8049;BME280;20935;42.660;23.342;2023-06-22T05:46:46;95275.59;;;24.50;75.28
8049;BME280;20935;42.660;23.342;2023-06-22T05:49:32;95280.44;;;24.55;75.32
8049;BME280;20935;42.660;23.342;2023-06-22T05:52:17;95277.19;;;24.57;74.68
8049;BME280;20935;42.660;23.342;2023-06-22T05:55:05;95276.75;;;24.58;74.43
8049;BME280;20935;42.660;23.342;2023-06-22T05:57:50;95276.00;;;24.58;74.25
8049;BME280;20935;42.660;23.342;2023-06-22T06:00:36;95274.75;;;24.59;74.56
8049;BME280;20935;42.660;23.342;2023-06-22T06:03:21;95272.22;;;24.55;74.72
8049;BME280;20935;42.660;23.342;2023-06-22T06:06:06;95270.44;;;24.52;74.05
8049;BME280;20935;42.660;23.342;2023-06-22T06:08:52;95258.91;;;24.48;73.84
8049;BME280;20935;42.660;23.342;2023-06-22T06:11:39;95265.28;;;24.45;73.86
8049;BME280;20935;42.660;23.342;2023-06-22T06:14:24;95259.06;;;24.45;73.96
8049;BME280;20935;42.660;23.342;2023-06-22T06:17:10;95252.84;;;24.44;74.00
8049;BME280;20935;42.660;23.342;2023-06-22T06:19:55;95261.34;;;24.46;73.83
8049;BME280;20935;42.660;23.342;2023-06-22T06:22:41;95261.91;;;24.50;73.79
8049;BME280;20935;42.660;23.342;2023-06-22T06:25:26;95256.72;;;24.52;73.76
8049;BME280;20935;42.660;23.342;2023-06-22T06:28:13;95255.78;;;24.55;74.00
8049;BME280;20935;42.660;23.342;2023-06-22T06:30:59;95252.56;;;24.57;74.20
8049;BME280;20935;42.660;23.342;2023-06-22T06:33:44;95264.25;;;24.57;73.56
8049;BME280;20935;42.660;23.342;2023-06-22T06:36:30;95254.63;;;24.62;72.97
8049;BME280;20935;42.660;23.342;2023-06-22T06:39:15;95248.69;;;24.63;73.98
8049;BME280;20935;42.660;23.342;2023-06-22T06:42:01;95243.03;;;24.67;73.80
8049;BME280;20935;42.660;23.342;2023-06-22T06:44:48;95240.56;;;24.69;73.87
8049;BME280;20935;42.660;23.342;2023-06-22T06:47:33;95243.59;;;24.71;73.65
8049;BME280;20935;42.660;23.342;2023-06-22T06:50:19;95240.34;;;24.72;73.93
8049;BME280;20935;42.660;23.342;2023-06-22T06:53:05;95239.13;;;24.73;73.92
8049;BME280;20935;42.660;23.342;2023-06-22T06:55:50;95237.16;;;24.74;73.28
8049;BME280;20935;42.660;23.342;2023-06-22T06:58:36;95224.47;;;24.76;73.97
8049;BME280;20935;42.660;23.342;2023-06-22T07:01:23;95231.28;;;24.81;73.61
8049;BME280;20935;42.660;23.342;2023-06-22T07:04:08;95229.59;;;24.84;73.92
8049;BME280;20935;42.660;23.342;2023-06-22T07:06:54;95229.13;;;24.85;73.61
8049;BME280;20935;42.660;23.342;2023-06-22T07:09:39;95238.41;;;24.88;73.89
8049;BME280;20935;42.660;23.342;2023-06-22T07:12:25;95233.19;;;24.90;74.04
8049;BME280;20935;42.660;23.342;2023-06-22T07:15:11;95229.50;;;24.93;73.88
8049;BME280;20935;42.660;23.342;2023-06-22T07:17:57;95229.81;;;24.95;73.85
8049;BME280;20935;42.660;23.342;2023-06-22T07:20:43;95230.38;;;24.99;74.11
8049;BME280;20935;42.660;23.342;2023-06-22T07:23:28;95229.88;;;25.00;73.64
8049;BME280;20935;42.660;23.342;2023-06-22T07:26:14;95230.16;;;25.02;73.72
8049;BME280;20935;42.660;23.342;2023-06-22T07:29:01;95228.44;;;25.05;73.61
8049;BME280;20935;42.660;23.342;2023-06-22T07:31:47;95229.97;;;25.06;73.87
8049;BME280;20935;42.660;23.342;2023-06-22T07:34:35;95229.00;;;25.09;73.75
8049;BME280;20935;42.660;23.342;2023-06-22T07:37:20;95223.81;;;25.11;73.80
8049;BME280;20935;42.660;23.342;2023-06-22T07:40:07;95233.56;;;25.12;73.61
8049;BME280;20935;42.660;23.342;2023-06-22T07:42:53;95234.59;;;25.14;73.83
8049;BME280;20935;42.660;23.342;2023-06-22T07:45:38;95229.38;;;25.16;74.00
8049;BME280;20935;42.660;23.342;2023-06-22T07:48:26;95231.63;;;25.18;74.16
8049;BME280;20935;42.660;23.342;2023-06-22T07:51:13;95230.69;;;25.21;73.78
8049;BME280;20935;42.660;23.342;2023-06-22T07:53:58;95237.22;;;25.23;73.55
8049;BME280;20935;42.660;23.342;2023-06-22T07:56:43;95234.75;;;25.25;73.56
8049;BME280;20935;42.660;23.342;2023-06-22T07:59:29;95224.06;;;25.28;73.42
8049;BME280;20935;42.660;23.342;2023-06-22T08:02:14;95226.59;;;25.31;73.34
8049;BME280;20935;42.660;23.342;2023-06-22T08:05:00;95226.59;;;25.31;73.30
8049;BME280;20935;42.660;23.342;2023-06-22T08:07:47;95222.16;;;25.34;73.41
8049;BME280;20935;42.660;23.342;2023-06-22T08:10:32;95216.19;;;25.35;73.13
8049;BME280;20935;42.660;23.342;2023-06-22T08:13:18;95208.72;;;25.36;72.98
8049;BME280;20935;42.660;23.342;2023-06-22T08:16:04;95216.44;;;25.37;72.83
8049;BME280;20935;42.660;23.342;2023-06-22T08:18:51;95210.97;;;25.37;72.49
8049;BME280;20935;42.660;23.342;2023-06-22T08:21:37;95208.50;;;25.39;72.75
8049;BME280;20935;42.660;23.342;2023-06-22T08:24:24;95203.03;;;25.39;72.64
8049;BME280;20935;42.660;23.342;2023-06-22T08:27:10;95205.56;;;25.43;73.19
8049;BME280;20935;42.660;23.342;2023-06-22T08:29:56;95198.34;;;25.45;72.36
8049;BME280;20935;42.660;23.342;2023-06-22T08:32:43;95200.84;;;25.43;72.41
8049;BME280;20935;42.660;23.342;2023-06-22T08:35:28;95203.09;;;25.45;72.66
8049;BME280;20935;42.660;23.342;2023-06-22T08:38:14;95197.03;;;25.41;73.04
8049;BME280;20935;42.660;23.342;2023-06-22T08:41:04;95211.06;;;25.43;72.98
8049;BME280;20935;42.660;23.342;2023-06-22T08:43:49;95208.78;;;25.41;73.83
8049;BME280;20935;42.660;23.342;2023-06-22T08:46:35;95207.56;;;25.42;73.50
8049;BME280;20935;42.660;23.342;2023-06-22T08:49:22;95210.00;;;25.40;73.95
8049;BME280;20935;42.660;23.342;2023-06-22T08:52:08;95210.75;;;25.41;73.74
8049;BME280;20935;42.660;23.342;2023-06-22T08:54:53;95212.28;;;25.42;73.79
8049;BME280;20935;42.660;23.342;2023-06-22T08:57:40;95202.81;;;25.43;74.10
8049;BME280;20935;42.660;23.342;2023-06-22T09:00:27;95199.59;;;25.44;73.82
8049;BME280;20935;42.660;23.342;2023-06-22T09:03:13;95194.38;;;25.46;73.49
8049;BME280;20935;42.660;23.342;2023-06-22T09:05:59;95183.66;;;25.48;73.32
8049;BME280;20935;42.660;23.342;2023-06-22T09:08:44;95183.50;;;25.52;73.45
8049;BME280;20935;42.660;23.342;2023-06-22T09:11:30;95186.53;;;25.54;73.24
8049;BME280;20935;42.660;23.342;2023-06-22T09:14:16;95176.56;;;25.56;73.45
8049;BME280;20935;42.660;23.342;2023-06-22T09:17:02;95190.56;;;25.58;73.12
8049;BME280;20935;42.660;23.342;2023-06-22T09:19:48;95184.59;;;25.60;73.03
8049;BME280;20935;42.660;23.342;2023-06-22T09:22:34;95188.38;;;25.62;73.05
8049;BME280;20935;42.660;23.342;2023-06-22T09:25:19;95191.88;;;25.63;72.90
8049;BME280;20935;42.660;23.342;2023-06-22T09:28:05;95186.66;;;25.65;73.00
8049;BME280;20935;42.660;23.342;2023-06-22T09:30:52;95189.69;;;25.67;72.13
8049;BME280;20935;42.660;23.342;2023-06-22T09:33:43;95194.69;;;25.68;72.48
8049;BME280;20935;42.660;23.342;2023-06-22T09:36:28;95194.97;;;25.70;71.84
8049;BME280;20935;42.660;23.342;2023-06-22T09:39:13;95195.22;;;25.73;71.33
8049;BME280;20935;42.660;23.342;2023-06-22T09:41:59;95191.72;;;25.72;71.00
8049;BME280;20935;42.660;23.342;2023-06-22T09:44:45;95194.00;;;25.74;71.34
8049;BME280;20935;42.660;23.342;2023-06-22T09:47:31;95194.75;;;25.74;72.16
8049;BME280;20935;42.660;23.342;2023-06-22T09:50:17;95194.97;;;25.70;73.03
8049;BME280;20935;42.660;23.342;2023-06-22T09:53:02;95192.03;;;25.74;72.89
8049;BME280;20935;42.660;23.342;2023-06-22T09:55:47;95190.03;;;25.75;72.91
8049;BME280;20935;42.660;23.342;2023-06-22T09:58:33;95175.81;;;25.76;73.02
8049;BME280;20935;42.660;23.342;2023-06-22T10:01:18;95167.09;;;25.78;73.16
8049;BME280;20935;42.660;23.342;2023-06-22T10:04:06;95168.88;;;25.81;73.14
8049;BME280;20935;42.660;23.342;2023-06-22T10:06:51;95170.88;;;25.80;72.74
8049;BME280;20935;42.660;23.342;2023-06-22T10:09:37;95170.19;;;25.85;72.83
8049;BME280;20935;42.660;23.342;2023-06-22T10:12:22;95161.47;;;25.87;72.38
8049;BME280;20935;42.660;23.342;2023-06-22T10:15:08;95172.16;;;25.85;73.56
8049;BME280;20935;42.660;23.342;2023-06-22T10:17:54;95156.66;;;25.82;73.50
8049;BME280;20935;42.660;23.342;2023-06-22T10:20:41;95162.63;;;25.80;74.42
8049;BME280;20935;42.660;23.342;2023-06-22T10:23:26;95160.63;;;25.81;80.49
8049;BME280;20935;42.660;23.342;2023-06-22T10:26:12;95162.16;;;25.82;84.56
8049;BME280;20935;42.660;23.342;2023-06-22T10:28:58;95165.38;;;25.80;78.64
8049;BME280;20935;42.660;23.342;2023-06-22T10:31:43;95163.13;;;25.79;78.20
8049;BME280;20935;42.660;23.342;2023-06-22T10:34:28;95155.66;;;25.79;78.44
8049;BME280;20935;42.660;23.342;2023-06-22T10:37:15;95156.41;;;25.80;78.03
8049;BME280;20935;42.660;23.342;2023-06-22T10:40:00;95152.91;;;25.79;78.50
8049;BME280;20935;42.660;23.342;2023-06-22T10:42:47;95147.13;;;25.77;78.79
8049;BME280;20935;42.660;23.342;2023-06-22T10:45:34;95145.91;;;25.78;78.55
8049;BME280;20935;42.660;23.342;2023-06-22T10:48:19;95144.88;;;25.76;78.70
8049;BME280;20935;42.660;23.342;2023-06-22T10:51:05;95144.88;;;25.76;79.01
8049;BME280;20935;42.660;23.342;2023-06-22T10:53:51;95144.88;;;25.76;78.86
8049;BME280;20935;42.660;23.342;2023-06-22T10:56:37;95137.38;;;25.76;78.59
8049;BME280;20935;42.660;23.342;2023-06-22T10:59:22;95136.91;;;25.78;78.98
8049;BME280;20935;42.660;23.342;2023-06-22T11:02:09;95140.88;;;25.77;78.95
8049;BME280;20935;42.660;23.342;2023-06-22T11:04:55;95145.16;;;25.78;79.16
8049;BME280;20935;42.660;23.342;2023-06-22T11:07:41;95129.91;;;25.77;79.05
8049;BME280;20935;42.660;23.342;2023-06-22T11:10:28;95136.16;;;25.77;79.38
8049;BME280;20935;42.660;23.342;2023-06-22T11:13:14;95139.09;;;25.74;79.45
8049;BME280;20935;42.660;23.342;2023-06-22T11:15:59;95129.66;;;25.75;79.76
8049;BME280;20935;42.660;23.342;2023-06-22T11:18:45;95125.66;;;25.76;79.61
8049;BME280;20935;42.660;23.342;2023-06-22T11:21:30;95124.41;;;25.77;79.47
8049;BME280;20935;42.660;23.342;2023-06-22T11:24:16;95117.69;;;25.78;80.09
8049;BME280;20935;42.660;23.342;2023-06-22T11:27:03;95107.47;;;25.78;80.30
8049;BME280;20935;42.660;23.342;2023-06-22T11:29:48;95112.00;;;25.81;80.11
8049;BME280;20935;42.660;23.342;2023-06-22T11:32:34;95117.00;;;25.83;79.78
8049;BME280;20935;42.660;23.342;2023-06-22T11:35:19;95108.28;;;25.84;79.93
8049;BME280;20935;42.660;23.342;2023-06-22T11:38:05;95112.53;;;25.85;80.22
8049;BME280;20935;42.660;23.342;2023-06-22T11:40:50;95109.03;;;25.85;80.07
8049;BME280;20935;42.660;23.342;2023-06-22T11:43:37;95111.78;;;25.85;81.36
8049;BME280;20935;42.660;23.342;2023-06-22T11:46:22;95104.28;;;25.85;81.55
8049;BME280;20935;42.660;23.342;2023-06-22T11:49:08;95107.03;;;25.85;81.96
8049;BME280;20935;42.660;23.342;2023-06-22T11:51:53;95099.84;;;25.88;82.02
8049;BME280;20935;42.660;23.342;2023-06-22T11:54:38;95094.34;;;25.88;82.16
8049;BME280;20935;42.660;23.342;2023-06-22T11:57:24;95090.34;;;25.89;82.85
8049;BME280;20935;42.660;23.342;2023-06-22T12:00:12;95096.59;;;25.89;83.17
8049;BME280;20935;42.660;23.342;2023-06-22T12:03:01;95090.34;;;25.89;84.24
8049;BME280;20935;42.660;23.342;2023-06-22T12:05:47;95097.34;;;25.90;88.74
8049;BME280;20935;42.660;23.342;2023-06-22T12:08:32;95099.34;;;25.89;84.69
8049;BME280;20935;42.660;23.342;2023-06-22T12:11:18;95098.59;;;25.89;84.01
8049;BME280;20935;42.660;23.342;2023-06-22T12:14:04;95104.06;;;25.89;82.65
8049;BME280;20935;42.660;23.342;2023-06-22T12:16:51;95109.34;;;25.92;79.84
8049;BME280;20935;42.660;23.342;2023-06-22T12:19:37;95114.84;;;25.92;79.55
8049;BME280;20935;42.660;23.342;2023-06-22T12:22:22;95118.63;;;25.95;81.18
8049;BME280;20935;42.660;23.342;2023-06-22T12:25:08;95122.88;;;25.96;82.64
8049;BME280;20935;42.660;23.342;2023-06-22T12:27:53;95129.09;;;25.96;83.40
8049;BME280;20935;42.660;23.342;2023-06-22T12:30:39;95122.13;;;25.95;83.23
8049;BME280;20935;42.660;23.342;2023-06-22T12:33:26;95130.84;;;25.94;83.81
8049;BME280;20935;42.660;23.342;2023-06-22T12:36:11;95150.53;;;25.92;84.50
8049;BME280;20935;42.660;23.342;2023-06-22T12:38:56;95150.00;;;25.88;86.49
8049;BME280;20935;42.660;23.342;2023-06-22T12:41:42;95144.72;;;25.85;86.18
8049;BME280;20935;42.660;23.342;2023-06-22T12:44:28;95159.69;;;25.84;86.35
8049;BME280;20935;42.660;23.342;2023-06-22T12:47:15;95150.72;;;25.83;86.81
8049;BME280;20935;42.660;23.342;2023-06-22T12:50:02;95155.91;;;25.81;86.70
8049;BME280;20935;42.660;23.342;2023-06-22T12:52:47;95177.41;;;25.83;87.58
8049;BME280;20935;42.660;23.342;2023-06-22T12:55:33;95183.84;;;25.80;87.32
8049;BME280;20935;42.660;23.342;2023-06-22T12:58:18;95187.34;;;25.80;87.81
8049;BME280;20935;42.660;23.342;2023-06-22T13:01:04;95177.63;;;25.79;88.31
8049;BME280;20935;42.660;23.342;2023-06-22T13:03:49;95176.09;;;25.78;88.60
8049;BME280;20935;42.660;23.342;2023-06-22T13:06:36;95179.31;;;25.77;88.91
8049;BME280;20935;42.660;23.342;2023-06-22T13:09:22;95168.06;;;25.75;89.12
8049;BME280;20935;42.660;23.342;2023-06-22T13:12:08;95169.59;;;25.76;89.56
8049;BME280;20935;42.660;23.342;2023-06-22T13:14:53;95168.84;;;25.75;90.05
8049;BME280;20935;42.660;23.342;2023-06-22T13:17:39;95178.56;;;25.76;90.18
8049;BME280;20935;42.660;23.342;2023-06-22T13:20:24;95175.06;;;25.76;90.23
8049;BME280;20935;42.660;23.342;2023-06-22T13:23:11;95174.31;;;25.75;90.29
8049;BME280;20935;42.660;23.342;2023-06-22T13:25:57;95187.28;;;25.75;90.18
8049;BME280;20935;42.660;23.342;2023-06-22T13:28:44;95187.28;;;25.75;90.32
8049;BME280;20935;42.660;23.342;2023-06-22T13:31:29;95185.50;;;25.72;90.59
8049;BME280;20935;42.660;23.342;2023-06-22T13:34:15;95179.25;;;25.71;90.35
8049;BME280;20935;42.660;23.342;2023-06-22T13:37:00;95161.75;;;25.68;90.77
8049;BME280;20935;42.660;23.342;2023-06-22T13:39:47;95154.78;;;25.67;90.96
8049;BME280;20935;42.660;23.342;2023-06-22T13:42:32;95152.50;;;25.66;91.07
8049;BME280;20935;42.660;23.342;2023-06-22T13:45:17;95137.00;;;25.63;90.92
8049;BME280;20935;42.660;23.342;2023-06-22T13:48:04;95133.50;;;25.62;90.90
8049;BME280;20935;42.660;23.342;2023-06-22T13:50:50;95130.75;;;25.62;91.23
8049;BME280;20935;42.660;23.342;2023-06-22T13:53:35;95134.72;;;25.61;91.60
8049;BME280;20935;42.660;23.342;2023-06-22T13:56:22;95133.22;;;25.60;91.74
8049;BME280;20935;42.660;23.342;2023-06-22T13:59:07;95127.25;;;25.62;91.78
8049;BME280;20935;42.660;23.342;2023-06-22T14:01:54;95133.50;;;25.62;91.98
8049;BME280;20935;42.660;23.342;2023-06-22T14:04:40;95137.47;;;25.61;91.71
8049;BME280;20935;42.660;23.342;2023-06-22T14:07:25;95145.72;;;25.61;92.01
8049;BME280;20935;42.660;23.342;2023-06-22T14:10:11;95159.91;;;25.60;91.82
8049;BME280;20935;42.660;23.342;2023-06-22T14:12:58;95157.16;;;25.60;91.97
8049;BME280;20935;42.660;23.342;2023-06-22T14:15:44;95171.63;;;25.60;92.00
8049;BME280;20935;42.660;23.342;2023-06-22T14:18:32;95167.41;;;25.59;91.87
8049;BME280;20935;42.660;23.342;2023-06-22T14:21:17;95166.16;;;25.60;92.39
8049;BME280;20935;42.660;23.342;2023-06-22T14:24:03;95168.88;;;25.60;92.05
8049;BME280;20935;42.660;23.342;2023-06-22T14:26:48;95168.13;;;25.60;92.11
8049;BME280;20935;42.660;23.342;2023-06-22T14:29:35;95168.13;;;25.60;92.40
8049;BME280;20935;42.660;23.342;2023-06-22T14:32:21;95166.16;;;25.60;91.90
8049;BME280;20935;42.660;23.342;2023-06-22T14:35:07;95166.91;;;25.61;92.15
8049;BME280;20935;42.660;23.342;2023-06-22T14:37:52;95175.88;;;25.61;91.98
8049;BME280;20935;42.660;23.342;2023-06-22T14:40:38;95162.94;;;25.62;91.85